sensor_id;sensor_type;location;lat;lon;timestamp;P1;durP1;ratioP1;P2;durP2;ratioP2
14817;SDS011;7500;57.698;11.986;2024-03-23T00:54:14;26.97;;;4.20;;
14817;SDS011;7500;57.698;11.986;2024-03-23T00:56:40;24.20;;;4.30;;
14817;SDS011;7500;57.698;11.986;2024-03-23T00:59:06;26.17;;;4.60;;
14817;SDS011;7500;57.698;11.986;2024-03-23T01:01:32;27.03;;;4.67;;
14817;SDS011;7500;57.698;11.986;2024-03-23T01:03:58;26.70;;;4.73;;
14817;SDS011;7500;57.698;11.986;2024-03-23T01:06:24;26.97;;;4.77;;
14817;SDS011;7500;57.698;11.986;2024-03-23T01:08:51;26.80;;;4.83;;
14817;SDS011;7500;57.698;11.986;2024-03-23T01:11:19;26.40;;;4.90;;
14817;SDS011;7500;57.698;11.986;2024-03-23T01:13:45;30.63;;;5.13;;
14817;SDS011;7500;57.698;11.986;2024-03-23T01:16:11;26.73;;;4.97;;
14817;SDS011;7500;57.698;11.986;2024-03-23T01:18:37;25.77;;;4.57;;
14817;SDS011;7500;57.698;11.986;2024-03-23T01:21:03;31.17;;;4.97;;
14817;SDS011;7500;57.698;11.986;2024-03-23T01:23:29;32.67;;;5.67;;
14817;SDS011;7500;57.698;11.986;2024-03-23T01:25:55;26.83;;;4.53;;
14817;SDS011;7500;57.698;11.986;2024-03-23T01:28:23;26.70;;;5.07;;
14817;SDS011;7500;57.698;11.986;2024-03-23T01:30:49;26.93;;;4.80;;
14817;SDS011;7500;57.698;11.986;2024-03-23T01:33:15;28.40;;;5.53;;
14817;SDS011;7500;57.698;11.986;2024-03-23T01:35:41;27.77;;;4.80;;
14817;SDS011;7500;57.698;11.986;2024-03-23T01:38:07;24.53;;;4.80;;
14817;SDS011;7500;57.698;11.986;2024-03-23T01:40:33;26.93;;;4.90;;
14817;SDS011;7500;57.698;11.986;2024-03-23T01:43:02;24.67;;;4.87;;
14817;SDS011;7500;57.698;11.986;2024-03-23T01:45:30;23.30;;;5.07;;
14817;SDS011;7500;57.698;11.986;2024-03-23T01:47:56;25.07;;;4.47;;
14817;SDS011;7500;57.698;11.986;2024-03-23T01:50:22;31.93;;;6.57;;
14817;SDS011;7500;57.698;11.986;2024-03-23T01:52:49;27.13;;;5.27;;
14817;SDS011;7500;57.698;11.986;2024-03-23T01:55:14;25.47;;;4.83;;
14817;SDS011;7500;57.698;11.986;2024-03-23T01:57:41;28.97;;;5.17;;
14817;SDS011;7500;57.698;11.986;2024-03-23T02:00:07;31.17;;;5.97;;
14817;SDS011;7500;57.698;11.986;2024-03-23T02:02:36;28.80;;;5.28;;
14817;SDS011;7500;57.698;11.986;2024-03-23T02:05:01;31.67;;;5.07;;
14817;SDS011;7500;57.698;11.986;2024-03-23T02:07:28;30.20;;;4.80;;
14817;SDS011;7500;57.698;11.986;2024-03-23T02:09:53;23.27;;;4.97;;
14817;SDS011;7500;57.698;11.986;2024-03-23T02:12:21;27.67;;;5.77;;
14817;SDS011;7500;57.698;11.986;2024-03-23T02:14:47;27.27;;;4.63;;
14817;SDS011;7500;57.698;11.986;2024-03-23T02:17:13;26.97;;;4.83;;
14817;SDS011;7500;57.698;11.986;2024-03-23T02:19:40;29.63;;;5.30;;
14817;SDS011;7500;57.698;11.986;2024-03-23T02:22:07;27.17;;;5.20;;
14817;SDS011;7500;57.698;11.986;2024-03-23T02:24:37;22.87;;;5.07;;
14817;SDS011;7500;57.698;11.986;2024-03-23T02:27:02;25.33;;;4.67;;
14817;SDS011;7500;57.698;11.986;2024-03-23T02:29:29;31.27;;;4.90;;
14817;SDS011;7500;57.698;11.986;2024-03-23T02:31:54;27.80;;;4.43;;
14817;SDS011;7500;57.698;11.986;2024-03-23T02:34:21;34.43;;;6.17;;
14817;SDS011;7500;57.698;11.986;2024-03-23T02:36:46;22.83;;;4.03;;
14817;SDS011;7500;57.698;11.986;2024-03-23T02:39:13;26.50;;;4.93;;
14817;SDS011;7500;57.698;11.986;2024-03-23T02:41:40;23.70;;;4.90;;
14817;SDS011;7500;57.698;11.986;2024-03-23T02:44:06;27.20;;;5.23;;
14817;SDS011;7500;57.698;11.986;2024-03-23T02:46:32;28.10;;;4.63;;
14817;SDS011;7500;57.698;11.986;2024-03-23T02:48:58;23.27;;;4.67;;
14817;SDS011;7500;57.698;11.986;2024-03-23T02:51:24;28.57;;;4.80;;
14817;SDS011;7500;57.698;11.986;2024-03-23T02:53:50;21.87;;;4.77;;
14817;SDS011;7500;57.698;11.986;2024-03-23T02:56:16;25.40;;;5.97;;
14817;SDS011;7500;57.698;11.986;2024-03-23T02:58:44;29.80;;;5.57;;
14817;SDS011;7500;57.698;11.986;2024-03-23T03:01:09;28.10;;;4.63;;
14817;SDS011;7500;57.698;11.986;2024-03-23T03:03:36;21.90;;;4.43;;
14817;SDS011;7500;57.698;11.986;2024-03-23T03:06:01;23.27;;;4.40;;
14817;SDS011;7500;57.698;11.986;2024-03-23T03:08:28;28.13;;;4.63;;
14817;SDS011;7500;57.698;11.986;2024-03-23T03:10:54;25.33;;;4.47;;
14817;SDS011;7500;57.698;11.986;2024-03-23T03:13:20;22.77;;;4.07;;
14817;SDS011;7500;57.698;11.986;2024-03-23T03:15:47;25.03;;;4.43;;
14817;SDS011;7500;57.698;11.986;2024-03-23T03:18:14;24.83;;;4.10;;
14817;SDS011;7500;57.698;11.986;2024-03-23T03:20:39;28.03;;;4.40;;
14817;SDS011;7500;57.698;11.986;2024-03-23T03:23:06;21.87;;;4.07;;
14817;SDS011;7500;57.698;11.986;2024-03-23T03:25:32;22.57;;;4.10;;
14817;SDS011;7500;57.698;11.986;2024-03-23T03:27:58;22.23;;;4.80;;
14817;SDS011;7500;57.698;11.986;2024-03-23T03:30:24;27.67;;;4.83;;
14817;SDS011;7500;57.698;11.986;2024-03-23T03:32:53;22.63;;;4.63;;
14817;SDS011;7500;57.698;11.986;2024-03-23T03:35:18;23.80;;;4.07;;
14817;SDS011;7500;57.698;11.986;2024-03-23T03:37:45;26.63;;;4.17;;
14817;SDS011;7500;57.698;11.986;2024-03-23T03:40:11;24.77;;;4.40;;
14817;SDS011;7500;57.698;11.986;2024-03-23T03:42:40;20.17;;;3.93;;
14817;SDS011;7500;57.698;11.986;2024-03-23T03:45:06;26.73;;;4.30;;
14817;SDS011;7500;57.698;11.986;2024-03-23T03:47:32;30.83;;;4.90;;
14817;SDS011;7500;57.698;11.986;2024-03-23T03:49:59;25.60;;;3.87;;
14817;SDS011;7500;57.698;11.986;2024-03-23T03:52:26;26.33;;;4.53;;
14817;SDS011;7500;57.698;11.986;2024-03-23T03:54:55;21.87;;;4.37;;
14817;SDS011;7500;57.698;11.986;2024-03-23T03:57:22;26.50;;;4.50;;
14817;SDS011;7500;57.698;11.986;2024-03-23T03:59:47;25.23;;;4.30;;
14817;SDS011;7500;57.698;11.986;2024-03-23T04:02:14;20.10;;;4.03;;
14817;SDS011;7500;57.698;11.986;2024-03-23T04:04:40;25.90;;;4.63;;
14817;SDS011;7500;57.698;11.986;2024-03-23T04:07:08;24.33;;;4.27;;
14817;SDS011;7500;57.698;11.986;2024-03-23T04:09:33;26.80;;;4.93;;
14817;SDS011;7500;57.698;11.986;2024-03-23T04:12:00;22.87;;;4.03;;
14817;SDS011;7500;57.698;11.986;2024-03-23T04:14:26;27.17;;;4.60;;
14817;SDS011;7500;57.698;11.986;2024-03-23T04:16:52;20.43;;;4.13;;
14817;SDS011;7500;57.698;11.986;2024-03-23T04:19:18;22.60;;;4.00;;
14817;SDS011;7500;57.698;11.986;2024-03-23T04:21:44;23.90;;;4.90;;
14817;SDS011;7500;57.698;11.986;2024-03-23T04:24:11;24.97;;;4.50;;
14817;SDS011;7500;57.698;11.986;2024-03-23T04:26:41;21.47;;;3.83;;
14817;SDS011;7500;57.698;11.986;2024-03-23T04:29:07;26.40;;;4.30;;
14817;SDS011;7500;57.698;11.986;2024-03-23T04:31:33;22.13;;;3.83;;
14817;SDS011;7500;57.698;11.986;2024-03-23T04:33:59;25.20;;;4.80;;
14817;SDS011;7500;57.698;11.986;2024-03-23T04:36:26;25.33;;;4.60;;
14817;SDS011;7500;57.698;11.986;2024-03-23T04:38:52;30.00;;;4.40;;
14817;SDS011;7500;57.698;11.986;2024-03-23T04:41:19;19.97;;;4.40;;
14817;SDS011;7500;57.698;11.986;2024-03-23T04:43:46;23.97;;;4.10;;
14817;SDS011;7500;57.698;11.986;2024-03-23T04:46:13;20.77;;;3.90;;
14817;SDS011;7500;57.698;11.986;2024-03-23T04:48:39;22.70;;;4.50;;
14817;SDS011;7500;57.698;11.986;2024-03-23T04:51:06;24.77;;;4.10;;
14817;SDS011;7500;57.698;11.986;2024-03-23T04:53:32;24.43;;;4.30;;
14817;SDS011;7500;57.698;11.986;2024-03-23T04:55:59;25.53;;;4.17;;
14817;SDS011;7500;57.698;11.986;2024-03-23T04:58:27;21.03;;;3.70;;
14817;SDS011;7500;57.698;11.986;2024-03-23T05:00:53;22.87;;;4.03;;
14817;SDS011;7500;57.698;11.986;2024-03-23T05:03:20;28.33;;;4.87;;
14817;SDS011;7500;57.698;11.986;2024-03-23T05:05:46;19.77;;;3.80;;
14817;SDS011;7500;57.698;11.986;2024-03-23T05:08:13;28.73;;;4.50;;
14817;SDS011;7500;57.698;11.986;2024-03-23T05:10:38;30.33;;;5.17;;
14817;SDS011;7500;57.698;11.986;2024-03-23T05:13:05;24.20;;;4.03;;
14817;SDS011;7500;57.698;11.986;2024-03-23T05:15:32;25.83;;;4.30;;
14817;SDS011;7500;57.698;11.986;2024-03-23T05:17:58;18.67;;;4.50;;
14817;SDS011;7500;57.698;11.986;2024-03-23T05:20:24;26.03;;;4.30;;
14817;SDS011;7500;57.698;11.986;2024-03-23T05:22:50;17.87;;;4.20;;
14817;SDS011;7500;57.698;11.986;2024-03-23T05:25:16;23.87;;;3.57;;
14817;SDS011;7500;57.698;11.986;2024-03-23T05:27:42;35.97;;;5.00;;
14817;SDS011;7500;57.698;11.986;2024-03-23T05:30:08;22.67;;;3.90;;
14817;SDS011;7500;57.698;11.986;2024-03-23T05:32:37;31.73;;;4.20;;
14817;SDS011;7500;57.698;11.986;2024-03-23T05:35:05;20.83;;;4.43;;
14817;SDS011;7500;57.698;11.986;2024-03-23T05:37:32;29.50;;;5.70;;
14817;SDS011;7500;57.698;11.986;2024-03-23T05:39:59;27.67;;;4.43;;
14817;SDS011;7500;57.698;11.986;2024-03-23T05:42:25;25.07;;;4.40;;
14817;SDS011;7500;57.698;11.986;2024-03-23T05:44:51;26.10;;;4.17;;
14817;SDS011;7500;57.698;11.986;2024-03-23T05:47:18;24.97;;;4.33;;
14817;SDS011;7500;57.698;11.986;2024-03-23T05:49:45;29.80;;;4.20;;
14817;SDS011;7500;57.698;11.986;2024-03-23T05:52:12;29.03;;;4.30;;
14817;SDS011;7500;57.698;11.986;2024-03-23T05:54:38;16.57;;;4.00;;
14817;SDS011;7500;57.698;11.986;2024-03-23T05:57:04;28.70;;;3.90;;
14817;SDS011;7500;57.698;11.986;2024-03-23T05:59:32;27.77;;;4.87;;
14817;SDS011;7500;57.698;11.986;2024-03-23T06:01:59;24.63;;;3.97;;
14817;SDS011;7500;57.698;11.986;2024-03-23T06:04:24;21.87;;;4.00;;
14817;SDS011;7500;57.698;11.986;2024-03-23T06:06:52;27.83;;;4.43;;
14817;SDS011;7500;57.698;11.986;2024-03-23T06:09:18;22.00;;;4.43;;
14817;SDS011;7500;57.698;11.986;2024-03-23T06:11:45;23.60;;;4.20;;
14817;SDS011;7500;57.698;11.986;2024-03-23T06:14:11;24.93;;;4.13;;
14817;SDS011;7500;57.698;11.986;2024-03-23T06:16:37;19.67;;;4.10;;
14817;SDS011;7500;57.698;11.986;2024-03-23T06:19:03;20.70;;;4.67;;
14817;SDS011;7500;57.698;11.986;2024-03-23T06:21:31;26.13;;;4.47;;
14817;SDS011;7500;57.698;11.986;2024-03-23T06:23:58;24.37;;;4.30;;
14817;SDS011;7500;57.698;11.986;2024-03-23T06:26:25;24.03;;;4.20;;
14817;SDS011;7500;57.698;11.986;2024-03-23T06:28:51;17.03;;;3.73;;
14817;SDS011;7500;57.698;11.986;2024-03-23T06:31:17;26.43;;;4.17;;
14817;SDS011;7500;57.698;11.986;2024-03-23T06:33:43;21.80;;;4.47;;
14817;SDS011;7500;57.698;11.986;2024-03-23T06:36:10;30.43;;;4.57;;
14817;SDS011;7500;57.698;11.986;2024-03-23T06:38:35;25.70;;;4.37;;
14817;SDS011;7500;57.698;11.986;2024-03-23T06:41:04;23.57;;;4.13;;
14817;SDS011;7500;57.698;11.986;2024-03-23T06:43:30;21.67;;;4.70;;
14817;SDS011;7500;57.698;11.986;2024-03-23T06:45:56;23.93;;;4.30;;
14817;SDS011;7500;57.698;11.986;2024-03-23T06:48:22;23.10;;;4.47;;
14817;SDS011;7500;57.698;11.986;2024-03-23T06:50:48;21.37;;;3.87;;
14817;SDS011;7500;57.698;11.986;2024-03-23T06:53:15;24.23;;;4.07;;
14817;SDS011;7500;57.698;11.986;2024-03-23T06:55:41;28.60;;;4.50;;
14817;SDS011;7500;57.698;11.986;2024-03-23T06:58:09;21.40;;;3.90;;
14817;SDS011;7500;57.698;11.986;2024-03-23T07:00:35;24.93;;;4.47;;
14817;SDS011;7500;57.698;11.986;2024-03-23T07:03:01;18.87;;;4.37;;
14817;SDS011;7500;57.698;11.986;2024-03-23T07:05:28;21.70;;;4.10;;
14817;SDS011;7500;57.698;11.986;2024-03-23T07:07:55;23.90;;;4.53;;
14817;SDS011;7500;57.698;11.986;2024-03-23T07:10:21;19.57;;;4.30;;
14817;SDS011;7500;57.698;11.986;2024-03-23T07:12:47;21.07;;;4.63;;
14817;SDS011;7500;57.698;11.986;2024-03-23T07:15:14;16.10;;;3.37;;
14817;SDS011;7500;57.698;11.986;2024-03-23T07:17:41;23.57;;;4.20;;
14817;SDS011;7500;57.698;11.986;2024-03-23T07:20:07;19.07;;;3.70;;
14817;SDS011;7500;57.698;11.986;2024-03-23T07:22:35;20.10;;;3.70;;
14817;SDS011;7500;57.698;11.986;2024-03-23T07:25:01;21.70;;;4.57;;
14817;SDS011;7500;57.698;11.986;2024-03-23T07:27:28;23.43;;;4.10;;
14817;SDS011;7500;57.698;11.986;2024-03-23T07:29:54;23.00;;;4.10;;
14817;SDS011;7500;57.698;11.986;2024-03-23T07:32:22;20.23;;;4.67;;
14817;SDS011;7500;57.698;11.986;2024-03-23T07:34:47;26.83;;;4.47;;
14817;SDS011;7500;57.698;11.986;2024-03-23T07:37:14;18.80;;;3.87;;
14817;SDS011;7500;57.698;11.986;2024-03-23T07:39:40;29.70;;;4.97;;
14817;SDS011;7500;57.698;11.986;2024-03-23T07:42:06;25.80;;;4.70;;
14817;SDS011;7500;57.698;11.986;2024-03-23T07:44:32;22.67;;;3.87;;
14817;SDS011;7500;57.698;11.986;2024-03-23T07:46:59;24.23;;;4.43;;
14817;SDS011;7500;57.698;11.986;2024-03-23T07:49:26;20.60;;;4.77;;
14817;SDS011;7500;57.698;11.986;2024-03-23T07:51:53;22.30;;;4.53;;
14817;SDS011;7500;57.698;11.986;2024-03-23T07:54:18;22.40;;;4.60;;
14817;SDS011;7500;57.698;11.986;2024-03-23T07:56:45;22.70;;;4.23;;
14817;SDS011;7500;57.698;11.986;2024-03-23T07:59:10;25.23;;;4.10;;
14817;SDS011;7500;57.698;11.986;2024-03-23T08:01:37;14.90;;;3.70;;
14817;SDS011;7500;57.698;11.986;2024-03-23T08:04:03;27.60;;;4.37;;
14817;SDS011;7500;57.698;11.986;2024-03-23T08:06:30;23.63;;;4.10;;
14817;SDS011;7500;57.698;11.986;2024-03-23T08:08:57;24.23;;;4.53;;
14817;SDS011;7500;57.698;11.986;2024-03-23T08:11:25;29.63;;;4.70;;
14817;SDS011;7500;57.698;11.986;2024-03-23T08:13:51;23.57;;;4.23;;
14817;SDS011;7500;57.698;11.986;2024-03-23T08:16:18;24.37;;;4.63;;
14817;SDS011;7500;57.698;11.986;2024-03-23T08:18:43;23.77;;;4.40;;
14817;SDS011;7500;57.698;11.986;2024-03-23T08:21:10;25.17;;;4.37;;
14817;SDS011;7500;57.698;11.986;2024-03-23T08:23:37;22.60;;;4.67;;
14817;SDS011;7500;57.698;11.986;2024-03-23T08:26:06;23.83;;;4.10;;
14817;SDS011;7500;57.698;11.986;2024-03-23T08:28:32;14.97;;;4.00;;
14817;SDS011;7500;57.698;11.986;2024-03-23T08:31:00;23.07;;;4.33;;
14817;SDS011;7500;57.698;11.986;2024-03-23T08:33:26;18.90;;;3.97;;
14817;SDS011;7500;57.698;11.986;2024-03-23T08:35:53;21.60;;;4.20;;
14817;SDS011;7500;57.698;11.986;2024-03-23T08:38:19;17.87;;;4.17;;
14817;SDS011;7500;57.698;11.986;2024-03-23T08:40:47;16.17;;;3.90;;
14817;SDS011;7500;57.698;11.986;2024-03-23T08:43:12;22.30;;;4.40;;
14817;SDS011;7500;57.698;11.986;2024-03-23T08:45:39;22.00;;;4.17;;
14817;SDS011;7500;57.698;11.986;2024-03-23T08:48:04;21.50;;;4.70;;
14817;SDS011;7500;57.698;11.986;2024-03-23T08:50:31;29.73;;;5.10;;
14817;SDS011;7500;57.698;11.986;2024-03-23T08:52:57;17.87;;;3.83;;
14817;SDS011;7500;57.698;11.986;2024-03-23T08:55:23;22.10;;;3.77;;
14817;SDS011;7500;57.698;11.986;2024-03-23T08:57:50;16.27;;;4.50;;
14817;SDS011;7500;57.698;11.986;2024-03-23T09:00:17;24.50;;;4.50;;
14817;SDS011;7500;57.698;11.986;2024-03-23T09:02:43;19.87;;;4.30;;
14817;SDS011;7500;57.698;11.986;2024-03-23T09:05:13;20.10;;;3.67;;
14817;SDS011;7500;57.698;11.986;2024-03-23T09:07:39;19.87;;;3.97;;
14817;SDS011;7500;57.698;11.986;2024-03-23T09:10:06;23.90;;;4.70;;
14817;SDS011;7500;57.698;11.986;2024-03-23T09:12:32;23.60;;;4.43;;
14817;SDS011;7500;57.698;11.986;2024-03-23T09:15:00;17.97;;;4.70;;
14817;SDS011;7500;57.698;11.986;2024-03-23T09:17:26;20.37;;;4.00;;
14817;SDS011;7500;57.698;11.986;2024-03-23T09:19:52;23.23;;;4.70;;
14817;SDS011;7500;57.698;11.986;2024-03-23T09:22:18;17.70;;;3.57;;
14817;SDS011;7500;57.698;11.986;2024-03-23T09:24:44;19.57;;;3.60;;
14817;SDS011;7500;57.698;11.986;2024-03-23T09:27:10;19.60;;;4.33;;
14817;SDS011;7500;57.698;11.986;2024-03-23T09:29:37;20.37;;;3.83;;
14817;SDS011;7500;57.698;11.986;2024-03-23T09:32:04;19.43;;;4.23;;
14817;SDS011;7500;57.698;11.986;2024-03-23T09:34:30;21.03;;;4.17;;
14817;SDS011;7500;57.698;11.986;2024-03-23T09:36:56;24.90;;;4.77;;
14817;SDS011;7500;57.698;11.986;2024-03-23T09:39:23;20.73;;;4.33;;
14817;SDS011;7500;57.698;11.986;2024-03-23T09:41:48;19.33;;;4.50;;
14817;SDS011;7500;57.698;11.986;2024-03-23T09:44:15;20.80;;;3.97;;
14817;SDS011;7500;57.698;11.986;2024-03-23T09:46:41;13.23;;;3.80;;
14817;SDS011;7500;57.698;11.986;2024-03-23T09:49:09;20.13;;;3.73;;
14817;SDS011;7500;57.698;11.986;2024-03-23T09:51:35;24.17;;;4.57;;
14817;SDS011;7500;57.698;11.986;2024-03-23T09:54:02;14.00;;;3.33;;
14817;SDS011;7500;57.698;11.986;2024-03-23T09:56:28;21.60;;;4.20;;
14817;SDS011;7500;57.698;11.986;2024-03-23T09:58:59;20.60;;;3.93;;
14817;SDS011;7500;57.698;11.986;2024-03-23T10:01:25;20.10;;;3.63;;
14817;SDS011;7500;57.698;11.986;2024-03-23T10:03:52;20.90;;;4.17;;
14817;SDS011;7500;57.698;11.986;2024-03-23T10:06:19;22.97;;;4.47;;
14817;SDS011;7500;57.698;11.986;2024-03-23T10:08:47;24.00;;;4.10;;
14817;SDS011;7500;57.698;11.986;2024-03-23T10:11:14;24.73;;;4.13;;
14817;SDS011;7500;57.698;11.986;2024-03-23T10:13:41;25.60;;;4.60;;
14817;SDS011;7500;57.698;11.986;2024-03-23T10:16:08;18.73;;;4.03;;
14817;SDS011;7500;57.698;11.986;2024-03-23T10:18:36;20.10;;;4.00;;
14817;SDS011;7500;57.698;11.986;2024-03-23T10:21:09;20.87;;;3.70;;
14817;SDS011;7500;57.698;11.986;2024-03-23T10:23:39;23.13;;;4.97;;
14817;SDS011;7500;57.698;11.986;2024-03-23T10:26:17;28.07;;;4.10;;
14817;SDS011;7500;57.698;11.986;2024-03-23T10:28:53;17.47;;;3.80;;
14817;SDS011;7500;57.698;11.986;2024-03-23T10:31:18;24.93;;;4.27;;
14817;SDS011;7500;57.698;11.986;2024-03-23T10:33:45;22.27;;;4.80;;
14817;SDS011;7500;57.698;11.986;2024-03-23T10:36:11;21.17;;;4.00;;
14817;SDS011;7500;57.698;11.986;2024-03-23T10:38:40;18.23;;;3.70;;
14817;SDS011;7500;57.698;11.986;2024-03-23T10:41:05;21.53;;;3.97;;
14817;SDS011;7500;57.698;11.986;2024-03-23T10:43:32;17.30;;;3.97;;
14817;SDS011;7500;57.698;11.986;2024-03-23T10:45:58;17.03;;;4.10;;
14817;SDS011;7500;57.698;11.986;2024-03-23T10:48:24;25.03;;;4.97;;
14817;SDS011;7500;57.698;11.986;2024-03-23T10:50:50;25.27;;;4.27;;
14817;SDS011;7500;57.698;11.986;2024-03-23T10:53:17;20.53;;;3.50;;
14817;SDS011;7500;57.698;11.986;2024-03-23T10:55:44;22.57;;;4.20;;
14817;SDS011;7500;57.698;11.986;2024-03-23T10:58:11;23.97;;;4.67;;
14817;SDS011;7500;57.698;11.986;2024-03-23T11:00:37;21.73;;;4.40;;
14817;SDS011;7500;57.698;11.986;2024-03-23T11:05:46;20.70;;;4.00;;
14817;SDS011;7500;57.698;11.986;2024-03-23T11:08:18;16.07;;;3.77;;
14817;SDS011;7500;57.698;11.986;2024-03-23T11:10:56;16.47;;;4.10;;
14817;SDS011;7500;57.698;11.986;2024-03-23T11:13:37;17.23;;;3.57;;
14817;SDS011;7500;57.698;11.986;2024-03-23T11:16:12;13.30;;;3.23;;
14817;SDS011;7500;57.698;11.986;2024-03-23T11:18:39;15.17;;;3.27;;
14817;SDS011;7500;57.698;11.986;2024-03-23T11:21:06;15.37;;;3.33;;
14817;SDS011;7500;57.698;11.986;2024-03-23T11:23:32;19.40;;;3.67;;
14817;SDS011;7500;57.698;11.986;2024-03-23T11:25:59;17.60;;;3.70;;
14817;SDS011;7500;57.698;11.986;2024-03-23T11:28:26;20.43;;;3.80;;
14817;SDS011;7500;57.698;11.986;2024-03-23T11:30:52;12.83;;;3.00;;
14817;SDS011;7500;57.698;11.986;2024-03-23T11:33:18;17.93;;;3.57;;
14817;SDS011;7500;57.698;11.986;2024-03-23T11:35:44;15.10;;;3.23;;
14817;SDS011;7500;57.698;11.986;2024-03-23T11:38:11;12.87;;;2.97;;
14817;SDS011;7500;57.698;11.986;2024-03-23T11:40:37;15.93;;;3.40;;
14817;SDS011;7500;57.698;11.986;2024-03-23T11:43:05;19.70;;;3.63;;
14817;SDS011;7500;57.698;11.986;2024-03-23T11:45:34;16.07;;;3.87;;
14817;SDS011;7500;57.698;11.986;2024-03-23T11:48:05;12.30;;;2.83;;
14817;SDS011;7500;57.698;11.986;2024-03-23T11:50:30;17.57;;;3.30;;
14817;SDS011;7500;57.698;11.986;2024-03-23T11:53:14;13.67;;;3.67;;
14817;SDS011;7500;57.698;11.986;2024-03-23T11:55:41;14.90;;;3.60;;
14817;SDS011;7500;57.698;11.986;2024-03-23T11:58:09;10.13;;;2.73;;
14817;SDS011;7500;57.698;11.986;2024-03-23T12:00:35;13.17;;;3.20;;
14817;SDS011;7500;57.698;11.986;2024-03-23T12:03:02;14.03;;;2.80;;
14817;SDS011;7500;57.698;11.986;2024-03-23T12:05:28;13.57;;;3.03;;
14817;SDS011;7500;57.698;11.986;2024-03-23T12:07:55;14.27;;;2.87;;
14817;SDS011;7500;57.698;11.986;2024-03-23T12:10:21;12.87;;;2.60;;
14817;SDS011;7500;57.698;11.986;2024-03-23T12:12:58;11.87;;;2.80;;
14817;SDS011;7500;57.698;11.986;2024-03-23T12:15:25;17.50;;;4.07;;
14817;SDS011;7500;57.698;11.986;2024-03-23T12:17:52;23.90;;;3.53;;
14817;SDS011;7500;57.698;11.986;2024-03-23T12:20:30;16.30;;;4.33;;
14817;SDS011;7500;57.698;11.986;2024-03-23T12:23:04;18.30;;;4.33;;
14817;SDS011;7500;57.698;11.986;2024-03-23T12:25:30;14.73;;;3.50;;
14817;SDS011;7500;57.698;11.986;2024-03-23T12:27:57;16.10;;;3.63;;
14817;SDS011;7500;57.698;11.986;2024-03-23T12:30:23;16.20;;;3.50;;
14817;SDS011;7500;57.698;11.986;2024-03-23T12:32:51;16.37;;;3.47;;
14817;SDS011;7500;57.698;11.986;2024-03-23T12:35:16;15.47;;;3.10;;
14817;SDS011;7500;57.698;11.986;2024-03-23T12:37:43;16.70;;;3.83;;
14817;SDS011;7500;57.698;11.986;2024-03-23T12:40:09;16.70;;;3.50;;
14817;SDS011;7500;57.698;11.986;2024-03-23T12:42:35;15.60;;;3.23;;
14817;SDS011;7500;57.698;11.986;2024-03-23T12:45:01;11.73;;;2.93;;
14817;SDS011;7500;57.698;11.986;2024-03-23T12:47:29;12.33;;;2.70;;
14817;SDS011;7500;57.698;11.986;2024-03-23T12:49:56;13.60;;;2.80;;
14817;SDS011;7500;57.698;11.986;2024-03-23T12:52:23;13.37;;;2.87;;
14817;SDS011;7500;57.698;11.986;2024-03-23T12:54:53;16.33;;;3.40;;
14817;SDS011;7500;57.698;11.986;2024-03-23T12:57:21;14.67;;;3.33;;
14817;SDS011;7500;57.698;11.986;2024-03-23T12:59:46;14.23;;;3.50;;
14817;SDS011;7500;57.698;11.986;2024-03-23T13:02:16;14.00;;;2.77;;
14817;SDS011;7500;57.698;11.986;2024-03-23T13:04:41;17.03;;;3.43;;
14817;SDS011;7500;57.698;11.986;2024-03-23T13:07:10;12.37;;;2.53;;
14817;SDS011;7500;57.698;11.986;2024-03-23T13:09:35;14.70;;;2.83;;
14817;SDS011;7500;57.698;11.986;2024-03-23T13:12:02;10.43;;;3.13;;
14817;SDS011;7500;57.698;11.986;2024-03-23T13:14:28;15.67;;;3.40;;
14817;SDS011;7500;57.698;11.986;2024-03-23T13:16:54;13.97;;;3.30;;
14817;SDS011;7500;57.698;11.986;2024-03-23T13:19:20;13.63;;;2.43;;
14817;SDS011;7500;57.698;11.986;2024-03-23T13:21:51;11.20;;;2.87;;
14817;SDS011;7500;57.698;11.986;2024-03-23T13:24:20;12.97;;;2.67;;
14817;SDS011;7500;57.698;11.986;2024-03-23T13:26:47;13.03;;;2.93;;
14817;SDS011;7500;57.698;11.986;2024-03-23T13:29:12;16.53;;;2.77;;
14817;SDS011;7500;57.698;11.986;2024-03-23T13:31:39;14.53;;;3.20;;
14817;SDS011;7500;57.698;11.986;2024-03-23T13:34:05;13.73;;;3.00;;
14817;SDS011;7500;57.698;11.986;2024-03-23T13:36:31;12.17;;;2.90;;
14817;SDS011;7500;57.698;11.986;2024-03-23T13:38:57;9.27;;;2.10;;
14817;SDS011;7500;57.698;11.986;2024-03-23T13:41:25;9.10;;;2.33;;
14817;SDS011;7500;57.698;11.986;2024-03-23T13:43:52;9.77;;;2.83;;
14817;SDS011;7500;57.698;11.986;2024-03-23T13:46:18;8.63;;;2.30;;
14817;SDS011;7500;57.698;11.986;2024-03-23T13:48:44;9.50;;;2.10;;
14817;SDS011;7500;57.698;11.986;2024-03-23T13:51:10;7.87;;;2.20;;
14817;SDS011;7500;57.698;11.986;2024-03-23T13:53:38;11.53;;;2.20;;
14817;SDS011;7500;57.698;11.986;2024-03-23T13:56:03;11.30;;;2.50;;
14817;SDS011;7500;57.698;11.986;2024-03-23T13:58:32;12.80;;;3.07;;
14817;SDS011;7500;57.698;11.986;2024-03-23T14:00:57;11.63;;;2.33;;
14817;SDS011;7500;57.698;11.986;2024-03-23T14:03:24;10.97;;;2.73;;
14817;SDS011;7500;57.698;11.986;2024-03-23T14:05:49;8.67;;;2.10;;
14817;SDS011;7500;57.698;11.986;2024-03-23T14:08:17;11.53;;;2.80;;
14817;SDS011;7500;57.698;11.986;2024-03-23T14:10:43;10.50;;;2.20;;
14817;SDS011;7500;57.698;11.986;2024-03-23T14:13:09;9.27;;;2.27;;
14817;SDS011;7500;57.698;11.986;2024-03-23T14:15:36;9.20;;;2.47;;
14817;SDS011;7500;57.698;11.986;2024-03-23T14:18:04;8.77;;;1.80;;
14817;SDS011;7500;57.698;11.986;2024-03-23T14:20:29;9.83;;;2.27;;
14817;SDS011;7500;57.698;11.986;2024-03-23T14:22:56;8.77;;;2.47;;
14817;SDS011;7500;57.698;11.986;2024-03-23T14:25:22;7.63;;;2.10;;
14817;SDS011;7500;57.698;11.986;2024-03-23T14:27:52;6.73;;;2.30;;
14817;SDS011;7500;57.698;11.986;2024-03-23T14:30:18;9.23;;;2.10;;
14817;SDS011;7500;57.698;11.986;2024-03-23T14:32:46;10.03;;;2.00;;
14817;SDS011;7500;57.698;11.986;2024-03-23T14:35:11;12.80;;;2.10;;
14817;SDS011;7500;57.698;11.986;2024-03-23T14:37:38;9.53;;;2.20;;
14817;SDS011;7500;57.698;11.986;2024-03-23T14:40:04;8.93;;;2.33;;
14817;SDS011;7500;57.698;11.986;2024-03-23T14:42:31;12.83;;;2.20;;
14817;SDS011;7500;57.698;11.986;2024-03-23T14:44:57;10.93;;;2.70;;
14817;SDS011;7500;57.698;11.986;2024-03-23T14:47:24;9.93;;;2.40;;
14817;SDS011;7500;57.698;11.986;2024-03-23T14:49:51;9.47;;;2.60;;
14817;SDS011;7500;57.698;11.986;2024-03-23T14:52:17;11.80;;;2.60;;
14817;SDS011;7500;57.698;11.986;2024-03-23T14:54:43;11.33;;;2.30;;
14817;SDS011;7500;57.698;11.986;2024-03-23T14:57:10;12.13;;;2.67;;
14817;SDS011;7500;57.698;11.986;2024-03-23T14:59:36;9.77;;;2.20;;
14817;SDS011;7500;57.698;11.986;2024-03-23T15:02:03;10.20;;;2.17;;
14817;SDS011;7500;57.698;11.986;2024-03-23T15:04:29;12.13;;;2.30;;
14817;SDS011;7500;57.698;11.986;2024-03-23T15:06:57;10.77;;;4.40;;
14817;SDS011;7500;57.698;11.986;2024-03-23T15:09:22;13.53;;;3.33;;
14817;SDS011;7500;57.698;11.986;2024-03-23T15:11:49;12.00;;;2.13;;
14817;SDS011;7500;57.698;11.986;2024-03-23T15:14:14;8.60;;;2.20;;
14817;SDS011;7500;57.698;11.986;2024-03-23T15:16:41;7.73;;;2.30;;
14817;SDS011;7500;57.698;11.986;2024-03-23T15:19:07;14.80;;;2.47;;
14817;SDS011;7500;57.698;11.986;2024-03-23T15:21:34;11.00;;;2.60;;
14817;SDS011;7500;57.698;11.986;2024-03-23T15:24:01;11.93;;;2.60;;
14817;SDS011;7500;57.698;11.986;2024-03-23T15:26:27;11.27;;;2.77;;
14817;SDS011;7500;57.698;11.986;2024-03-23T15:28:53;11.23;;;2.53;;